Time;durP1;ratioP1;P1;durP2;ratioP2;P2;SDS_P1;SDS_P2;PMS_P1;PMS_P2;Temp;Humidity;BMP_temperature;BMP_pressure;BME280_temperature;BME280_humidity;BME280_pressure;Samples;Min_cycle;Max_cycle;Signal;HPM_P1;HPM_P2
2023/12/05 00:02:00;;;;;;;4.18;2.78;;;16.50;42.40;;;;;;5108995;27;47348;-60
2023/12/05 00:04:26;;;;;;;3.47;2.75;;;16.50;42.50;;;;;;5108757;27;45271;-60
2023/12/05 00:06:55;;;;;;;3.85;2.50;;;16.50;42.50;;;;;;5108964;27;45437;-60
2023/12/05 00:09:21;;;;;;;2.90;2.60;;;16.40;42.60;;;;;;5109200;27;45350;-60
2023/12/05 00:11:48;;;;;;;3.67;2.80;;;16.40;42.60;;;;;;5108704;27;45278;-60
2023/12/05 00:14:15;;;;;;;3.90;2.58;;;16.40;42.60;;;;;;5108629;27;45236;-60
2023/12/05 00:16:42;;;;;;;2.53;2.33;;;16.40;42.60;;;;;;5108719;27;45352;-60
2023/12/05 00:19:10;;;;;;;3.67;2.60;;;16.40;42.70;;;;;;5108939;27;45288;-60
2023/12/05 00:21:37;;;;;;;2.92;2.60;;;16.30;42.70;;;;;;5108681;27;45397;-60
2023/12/05 00:24:06;;;;;;;3.85;2.85;;;16.30;42.70;;;;;;5108467;27;45262;-60
2023/12/05 00:26:34;;;;;;;3.30;2.50;;;16.30;42.70;;;;;;5108914;27;45298;-59
2023/12/05 00:29:01;;;;;;;3.55;2.50;;;16.30;42.80;;;;;;5108394;27;45289;-60
2023/12/05 00:31:28;;;;;;;2.22;1.98;;;16.30;42.80;;;;;;5108257;27;45366;-60
2023/12/05 00:33:55;;;;;;;2.70;2.30;;;16.20;42.80;;;;;;5113383;27;45250;-60
2023/12/05 00:36:21;;;;;;;2.78;2.40;;;16.20;42.90;;;;;;5128803;27;45302;-60
2023/12/05 00:38:48;;;;;;;3.72;2.60;;;16.20;42.90;;;;;;5129111;27;45306;-61
2023/12/05 00:41:16;;;;;;;3.50;2.40;;;16.20;42.90;;;;;;5128737;27;47319;-60
2023/12/05 00:43:43;;;;;;;2.55;2.13;;;16.20;43.00;;;;;;5128635;27;45360;-60
2023/12/05 00:46:10;;;;;;;2.97;2.08;;;16.20;43.00;;;;;;5125346;27;45309;-61
2023/12/05 00:48:37;;;;;;;2.90;2.33;;;16.20;43.00;;;;;;5108385;27;45233;-60
2023/12/05 00:51:04;;;;;;;2.85;2.33;;;16.10;43.00;;;;;;5107870;27;46322;-59
2023/12/05 00:53:31;;;;;;;4.07;2.45;;;16.10;43.10;;;;;;5108062;27;45287;-60
2023/12/05 00:55:57;;;;;;;2.72;2.35;;;16.10;43.10;;;;;;5107839;27;45433;-60
2023/12/05 00:58:26;;;;;;;2.35;2.13;;;16.10;43.10;;;;;;5107973;27;45318;-60
2023/12/05 01:00:52;;;;;;;2.45;2.25;;;16.10;43.20;;;;;;5107753;27;46688;-60
2023/12/05 01:03:20;;;;;;;3.03;2.30;;;16.10;43.20;;;;;;5107887;27;45311;-60
2023/12/05 01:05:47;;;;;;;2.88;2.67;;;16.10;43.20;;;;;;5108016;27;45392;-59
2023/12/05 01:08:13;;;;;;;2.78;2.25;;;16.00;43.20;;;;;;5108015;27;45590;-60
2023/12/05 01:10:40;;;;;;;2.30;2.10;;;16.00;43.30;;;;;;5107541;27;47317;-60
2023/12/05 01:13:07;;;;;;;3.80;2.50;;;16.00;43.30;;;;;;5107525;27;45412;-60
2023/12/05 01:15:35;;;;;;;3.22;2.08;;;16.00;43.30;;;;;;5107667;27;45358;-60
2023/12/05 01:18:02;;;;;;;2.45;2.25;;;16.00;43.40;;;;;;5107895;27;45393;-60
2023/12/05 01:20:29;;;;;;;2.10;1.90;;;16.00;43.40;;;;;;5107353;27;46598;-60
2023/12/05 01:22:56;;;;;;;2.92;1.90;;;16.00;43.40;;;;;;5107621;27;45175;-60
2023/12/05 01:25:23;;;;;;;2.50;1.55;;;16.00;43.50;;;;;;5107518;27;45536;-60
2023/12/05 01:27:50;;;;;;;1.77;1.65;;;15.90;43.40;;;;;;5107755;27;45314;-60
2023/12/05 01:30:17;;;;;;;2.08;1.85;;;15.90;43.50;;;;;;5107384;27;45612;-61
2023/12/05 01:32:45;;;;;;;1.77;1.67;;;15.90;43.60;;;;;;5107436;27;45334;-60
2023/12/05 01:35:12;;;;;;;2.03;1.92;;;15.90;43.60;;;;;;5123577;27;45354;-60
2023/12/05 01:37:38;;;;;;;2.33;2.13;;;15.90;43.60;;;;;;5128268;27;45243;-60
2023/12/05 01:40:09;;;;;;;1.80;1.70;;;15.90;43.70;;;;;;5127878;27;46386;-60
2023/12/05 01:42:36;;;;;;;2.55;1.90;;;15.90;43.70;;;;;;5126963;27;45315;-60
2023/12/05 01:45:04;;;;;;;1.73;1.52;;;15.80;43.70;;;;;;5128044;27;45254;-60
2023/12/05 01:47:30;;;;;;;2.05;1.63;;;15.80;43.70;;;;;;5113278;27;45369;-60
2023/12/05 01:49:58;;;;;;;2.60;1.70;;;15.80;43.70;;;;;;5107109;27;45417;-59
2023/12/05 01:52:25;;;;;;;2.17;1.55;;;15.80;43.80;;;;;;5107114;27;45334;-59
2023/12/05 01:54:52;;;;;;;1.50;1.40;;;15.80;43.80;;;;;;5107078;27;45297;-60
2023/12/05 01:57:19;;;;;;;1.75;1.48;;;15.80;43.80;;;;;;5106942;27;45625;-60
2023/12/05 01:59:46;;;;;;;2.00;1.63;;;15.80;43.80;;;;;;5106974;27;45318;-60
2023/12/05 02:02:13;;;;;;;1.88;1.70;;;15.80;43.90;;;;;;5106899;27;45361;-60
2023/12/05 02:04:40;;;;;;;2.00;1.50;;;15.70;43.80;;;;;;5107005;27;45335;-60
2023/12/05 02:07:08;;;;;;;1.75;1.52;;;15.70;43.90;;;;;;5107103;27;45383;-60
2023/12/05 02:09:37;;;;;;;1.50;1.40;;;15.70;43.90;;;;;;5106739;27;46590;-61
2023/12/05 02:12:05;;;;;;;1.77;1.67;;;15.70;43.90;;;;;;5106908;27;45396;-60
2023/12/05 02:14:32;;;;;;;1.80;1.55;;;15.70;43.90;;;;;;5106905;27;45329;-60
2023/12/05 02:17:02;;;;;;;1.67;1.58;;;15.70;44.70;;;;;;5107051;27;45257;-60
2023/12/05 02:19:45;;;;;;;1.65;1.35;;;15.60;44.10;;;;;;5106708;27;46520;-60
2023/12/05 02:22:17;;;;;;;1.60;1.50;;;15.70;44.20;;;;;;5106566;27;45349;-60
2023/12/05 02:24:47;;;;;;;2.08;1.70;;;15.60;44.70;;;;;;5106619;27;45286;-60
2023/12/05 02:27:17;;;;;;;1.55;1.27;;;15.60;44.10;;;;;;5106787;27;45435;-60
2023/12/05 02:29:49;;;;;;;1.67;1.58;;;15.60;44.30;;;;;;5106349;27;45440;-60
2023/12/05 02:32:16;;;;;;;1.73;1.63;;;15.60;44.20;;;;;;5106338;27;45248;-61
2023/12/05 02:34:43;;;;;;;1.48;1.38;;;15.60;44.20;;;;;;5118488;27;45326;-59
2023/12/05 02:37:16;;;;;;;1.48;1.38;;;15.50;44.30;;;;;;5127345;27;45713;-59
2023/12/05 02:39:49;;;;;;;1.58;1.48;;;15.50;44.30;;;;;;5126978;27;45586;-59
2023/12/05 02:42:16;;;;;;;1.75;1.58;;;15.60;44.90;;;;;;5126998;27;45382;-60
2023/12/05 02:44:45;;;;;;;1.55;1.42;;;15.60;44.40;;;;;;5127098;27;45239;-60
2023/12/05 02:47:14;;;;;;;1.27;1.10;;;15.50;44.30;;;;;;5114912;27;45487;-60
2023/12/05 02:49:41;;;;;;;1.50;1.40;;;15.50;44.30;;;;;;5106204;27;47376;-60
2023/12/05 02:52:07;;;;;;;1.55;1.00;;;15.50;44.30;;;;;;5106110;27;45310;-59
2023/12/05 02:54:34;;;;;;;1.20;1.10;;;15.50;44.40;;;;;;5106402;27;45397;-60
2023/12/05 02:57:01;;;;;;;1.35;1.25;;;15.50;44.40;;;;;;5106209;27;45390;-60
2023/12/05 02:59:28;;;;;;;1.20;1.10;;;15.50;44.40;;;;;;5106095;27;45337;-60
2023/12/05 03:01:54;;;;;;;1.23;1.10;;;15.50;44.50;;;;;;5106133;27;45304;-59
2023/12/05 03:04:23;;;;;;;1.63;1.20;;;15.40;44.50;;;;;;5106324;27;45246;-60
2023/12/05 03:06:49;;;;;;;1.48;1.27;;;15.40;44.50;;;;;;5106363;27;45229;-61
2023/12/05 03:09:17;;;;;;;1.35;0.95;;;15.40;44.60;;;;;;5105949;27;47301;-60
2023/12/05 03:11:44;;;;;;;1.23;1.10;;;15.40;44.60;;;;;;5106017;27;45351;-60
2023/12/05 03:14:11;;;;;;;1.15;1.05;;;15.40;44.50;;;;;;5106106;27;45301;-60
2023/12/05 03:16:38;;;;;;;1.02;1.02;;;15.40;44.50;;;;;;5106248;27;45359;-60
2023/12/05 03:19:04;;;;;;;0.75;0.75;;;15.40;44.50;;;;;;5105679;27;46666;-60
2023/12/05 03:21:32;;;;;;;1.80;1.40;;;15.40;44.50;;;;;;5105799;27;45438;-60
2023/12/05 03:23:59;;;;;;;1.30;1.08;;;15.40;44.50;;;;;;5105965;27;45398;-60
2023/12/05 03:26:26;;;;;;;1.48;1.17;;;15.40;44.60;;;;;;5106093;27;45251;-60
2023/12/05 03:28:53;;;;;;;2.00;1.30;;;15.40;44.60;;;;;;5105620;27;46357;-59
2023/12/05 03:31:20;;;;;;;1.40;1.30;;;15.40;44.60;;;;;;5105988;27;45251;-61
2023/12/05 03:33:47;;;;;;;1.67;1.40;;;15.40;44.60;;;;;;5109775;27;45314;-60
2023/12/05 03:36:13;;;;;;;1.23;1.13;;;15.30;44.60;;;;;;5126400;27;45426;-59
2023/12/05 03:38:41;;;;;;;1.75;1.27;;;15.30;44.70;;;;;;5126091;27;45523;-60
2023/12/05 03:41:09;;;;;;;2.13;1.23;;;15.30;44.70;;;;;;5126110;27;45305;-60
2023/12/05 03:43:35;;;;;;;1.48;1.33;;;15.30;44.70;;;;;;5126378;27;45375;-60
2023/12/05 03:46:02;;;;;;;1.17;1.08;;;15.30;44.80;;;;;;5121380;27;45376;-60
2023/12/05 03:48:29;;;;;;;0.93;0.80;;;15.30;44.80;;;;;;5105421;27;46394;-59
2023/12/05 03:50:56;;;;;;;1.40;1.08;;;15.30;44.80;;;;;;5105452;27;45350;-60
2023/12/05 03:53:23;;;;;;;1.15;1.05;;;15.30;44.80;;;;;;5105772;27;45292;-60
2023/12/05 03:55:51;;;;;;;1.70;1.10;;;15.30;44.80;;;;;;5105788;27;45125;-60
2023/12/05 03:58:17;;;;;;;1.42;1.10;;;15.30;44.80;;;;;;5105070;27;45392;-59
2023/12/05 04:00:44;;;;;;;2.20;0.95;;;15.20;44.80;;;;;;5105366;27;45245;-59
2023/12/05 04:03:11;;;;;;;1.10;0.90;;;15.20;44.80;;;;;;5105438;27;45310;-60
2023/12/05 04:05:39;;;;;;;1.55;0.90;;;15.30;44.90;;;;;;5107708;27;45303;-59
2023/12/05 04:08:06;;;;;;;1.33;1.20;;;15.30;44.90;;;;;;5108676;27;45517;-59
2023/12/05 04:10:33;;;;;;;1.20;1.10;;;15.30;44.80;;;;;;5108710;27;45398;-60
2023/12/05 04:13:01;;;;;;;1.17;1.08;;;15.30;44.70;;;;;;5108986;27;45384;-60
2023/12/05 04:15:28;;;;;;;1.42;1.08;;;15.40;44.60;;;;;;5108996;27;45505;-60
2023/12/05 04:17:55;;;;;;;1.30;1.20;;;15.40;44.50;;;;;;5108653;27;47303;-59
2023/12/05 04:20:22;;;;;;;1.45;0.90;;;15.50;44.30;;;;;;5108729;27;45361;-60
2023/12/05 04:22:49;;;;;;;1.25;1.00;;;15.60;44.20;;;;;;5108753;27;45663;-61
2023/12/05 04:25:16;;;;;;;1.00;0.90;;;15.70;44.00;;;;;;5108731;27;45303;-60
2023/12/05 04:27:42;;;;;;;1.10;1.08;;;15.80;43.90;;;;;;5108476;27;46335;-60
2023/12/05 04:30:11;;;;;;;1.73;0.95;;;15.90;43.70;;;;;;5108438;27;45318;-61
2023/12/05 04:32:38;;;;;;;1.00;0.73;;;16.00;43.50;;;;;;5108588;27;45372;-59
2023/12/05 04:35:06;;;;;;;0.60;0.60;;;16.10;43.20;;;;;;5123746;27;45355;-60
2023/12/05 04:37:33;;;;;;;2.13;0.80;;;16.30;43.00;;;;;;5128969;27;45275;-60
2023/12/05 04:40:00;;;;;;;1.92;0.80;;;16.40;42.70;;;;;;5128928;27;45356;-60
2023/12/05 04:42:26;;;;;;;1.33;0.90;;;16.50;42.60;;;;;;5128975;27;45328;-62
2023/12/05 04:44:53;;;;;;;1.65;0.73;;;16.60;42.50;;;;;;5129020;27;45423;-60
2023/12/05 04:47:21;;;;;;;0.75;0.75;;;16.60;42.30;;;;;;5115053;27;47328;-61
2023/12/05 04:49:48;;;;;;;0.77;0.75;;;16.70;42.10;;;;;;5108124;27;45252;-60
2023/12/05 04:52:15;;;;;;;0.77;0.75;;;16.80;42.00;;;;;;5108363;27;45319;-60
2023/12/05 04:54:42;;;;;;;0.95;0.73;;;16.80;41.90;;;;;;5105655;27;45353;-60
2023/12/05 04:57:09;;;;;;;0.65;0.65;;;16.90;41.80;;;;;;5107534;27;46420;-60
2023/12/05 04:59:36;;;;;;;0.82;0.65;;;16.90;41.70;;;;;;5107978;27;45399;-60
2023/12/05 05:02:03;;;;;;;2.70;0.70;;;17.00;41.60;;;;;;5108058;27;45264;-60
2023/12/05 05:04:31;;;;;;;0.50;0.50;;;17.10;41.60;;;;;;5108219;27;45407;-60
2023/12/05 05:06:57;;;;;;;1.02;0.80;;;17.10;41.50;;;;;;5107761;27;45494;-60
2023/12/05 05:09:24;;;;;;;0.52;0.52;;;17.20;41.50;;;;;;5107809;27;45407;-60
2023/12/05 05:11:51;;;;;;;0.70;0.70;;;17.20;41.40;;;;;;5108057;27;45421;-60
2023/12/05 05:14:18;;;;;;;1.00;0.75;;;17.20;41.30;;;;;;5108179;27;45417;-60
2023/12/05 05:16:45;;;;;;;1.00;0.80;;;17.30;41.30;;;;;;5107576;27;45266;-60
2023/12/05 05:19:11;;;;;;;0.55;0.55;;;17.30;41.20;;;;;;5107897;27;45549;-60
2023/12/05 05:21:39;;;;;;;0.85;0.68;;;17.30;41.20;;;;;;5107879;27;45373;-61
2023/12/05 05:24:07;;;;;;;0.82;0.40;;;17.30;41.10;;;;;;5107927;27;45555;-60
2023/12/05 05:26:34;;;;;;;0.70;0.70;;;17.40;41.10;;;;;;5107375;27;45253;-60
2023/12/05 05:29:01;;;;;;;0.73;0.43;;;17.40;41.10;;;;;;5107539;27;45299;-60
2023/12/05 05:31:27;;;;;;;0.50;0.50;;;17.40;41.10;;;;;;5107544;27;45436;-60
2023/12/05 05:33:54;;;;;;;0.50;0.50;;;17.40;41.00;;;;;;5112730;27;45398;-60
2023/12/05 05:36:21;;;;;;;1.27;0.47;;;17.40;41.00;;;;;;5127898;27;47372;-61
2023/12/05 05:38:49;;;;;;;0.88;0.60;;;17.50;41.00;;;;;;5127971;27;45259;-60
2023/12/05 05:41:16;;;;;;;0.63;0.50;;;17.50;41.00;;;;;;5127845;27;45279;-60
2023/12/05 05:43:43;;;;;;;0.75;0.70;;;17.50;41.00;;;;;;5128171;27;45423;-60
2023/12/05 05:46:09;;;;;;;0.57;0.43;;;17.50;40.90;;;;;;5124400;27;47340;-60
2023/12/05 05:48:36;;;;;;;0.60;0.60;;;17.60;41.00;;;;;;5107081;27;45339;-60
2023/12/05 05:51:03;;;;;;;0.60;0.60;;;17.50;40.90;;;;;;5107330;27;45341;-61
2023/12/05 05:53:30;;;;;;;1.83;0.60;;;17.50;40.90;;;;;;5107558;27;45311;-60
2023/12/05 05:56:00;;;;;;;1.17;0.70;;;17.60;40.80;;;;;;5106936;27;45405;-60
2023/12/05 05:58:27;;;;;;;0.68;0.68;;;17.60;40.80;;;;;;5106838;27;45582;-60
2023/12/05 06:00:54;;;;;;;0.85;0.50;;;17.60;40.80;;;;;;5107199;27;45271;-60
2023/12/05 06:03:21;;;;;;;0.98;0.50;;;17.60;40.80;;;;;;5107153;27;45301;-61
2023/12/05 06:05:48;;;;;;;1.33;0.52;;;17.60;40.80;;;;;;5106709;27;46718;-60
2023/12/05 06:08:15;;;;;;;1.38;0.70;;;17.60;40.80;;;;;;5106936;27;45372;-60
2023/12/05 06:10:42;;;;;;;0.63;0.52;;;17.70;40.70;;;;;;5106903;27;45359;-60
2023/12/05 06:13:10;;;;;;;0.50;0.50;;;17.70;40.70;;;;;;5107012;27;45394;-60
2023/12/05 06:15:37;;;;;;;0.65;0.45;;;17.70;40.70;;;;;;5106675;27;45425;-60
2023/12/05 06:18:03;;;;;;;0.80;0.57;;;17.70;40.70;;;;;;5106658;27;45414;-60
2023/12/05 06:20:30;;;;;;;0.40;0.40;;;17.70;40.70;;;;;;5106891;27;45391;-60
2023/12/05 06:22:57;;;;;;;0.60;0.60;;;17.70;40.70;;;;;;5106991;27;45423;-60
2023/12/05 06:25:24;;;;;;;1.48;0.40;;;17.70;40.70;;;;;;5106450;27;45590;-60
2023/12/05 06:27:51;;;;;;;0.40;0.40;;;17.70;40.70;;;;;;5106120;27;45328;-60
2023/12/05 06:30:19;;;;;;;0.40;0.40;;;17.70;40.70;;;;;;5106906;27;45327;-60
2023/12/05 06:32:45;;;;;;;1.75;0.55;;;17.70;40.60;;;;;;5106764;27;45349;-60
2023/12/05 06:35:12;;;;;;;1.08;0.60;;;17.70;40.60;;;;;;5119781;27;46220;-60
2023/12/05 06:37:39;;;;;;;0.85;0.43;;;17.70;40.70;;;;;;5127148;27;45287;-60
2023/12/05 06:40:07;;;;;;;0.80;0.65;;;17.70;40.70;;;;;;5127170;27;45264;-60
2023/12/05 06:42:35;;;;;;;1.65;0.40;;;17.70;40.70;;;;;;5127186;27;45351;-60
2023/12/05 06:45:02;;;;;;;1.02;0.40;;;17.70;40.70;;;;;;5126720;27;46380;-60
2023/12/05 06:47:30;;;;;;;1.08;0.50;;;17.80;40.70;;;;;;5112526;27;45331;-60
2023/12/05 06:50:00;;;;;;;0.50;0.50;;;17.80;40.70;;;;;;5106496;27;45249;-60
2023/12/05 06:52:26;;;;;;;1.00;0.75;;;17.80;40.60;;;;;;5106385;27;45324;-60
2023/12/05 06:54:53;;;;;;;0.95;0.47;;;17.90;40.60;;;;;;5106113;27;46379;-61
2023/12/05 06:57:20;;;;;;;0.50;0.50;;;17.90;40.50;;;;;;5105830;27;45346;-60
2023/12/05 06:59:47;;;;;;;0.30;0.30;;;17.90;40.50;;;;;;5106329;27;45405;-60
2023/12/05 07:02:15;;;;;;;1.73;0.50;;;17.90;40.40;;;;;;5106273;27;45399;-60
2023/12/05 07:04:43;;;;;;;0.47;0.47;;;18.00;40.40;;;;;;5106032;27;46600;-60
2023/12/05 07:07:10;;;;;;;1.17;0.43;;;18.00;40.30;;;;;;5106057;27;45263;-60
2023/12/05 07:09:37;;;;;;;0.57;0.40;;;18.00;40.30;;;;;;5106182;27;45325;-60
2023/12/05 07:12:04;;;;;;;0.30;0.30;;;18.10;40.30;;;;;;5106382;27;45342;-60
2023/12/05 07:14:34;;;;;;;0.50;0.50;;;18.10;40.30;;;;;;5105857;27;45477;-60
2023/12/05 07:17:01;;;;;;;0.45;0.45;;;18.10;40.20;;;;;;5105868;27;45271;-60
2023/12/05 07:19:27;;;;;;;1.10;0.30;;;18.10;40.20;;;;;;5106087;27;45398;-59
2023/12/05 07:21:56;;;;;;;0.40;0.40;;;18.10;40.20;;;;;;5106125;27;45437;-61
2023/12/05 07:24:22;;;;;;;0.30;0.30;;;18.10;40.20;;;;;;5111641;27;47906;-60
2023/12/05 07:26:49;;;;;;;0.40;0.40;;;18.10;40.20;;;;;;5126528;27;45387;-60
2023/12/05 07:29:16;;;;;;;0.40;0.40;;;18.10;40.20;;;;;;5126474;27;45322;-60
2023/12/05 07:31:43;;;;;;;0.40;0.40;;;18.20;40.20;;;;;;5126159;27;45242;-60
2023/12/05 07:34:10;;;;;;;0.28;0.25;;;18.20;40.20;;;;;;5118780;27;47310;-60
2023/12/05 07:36:40;;;;;;;0.50;0.40;;;18.20;40.20;;;;;;5124607;27;45388;-60
2023/12/05 07:39:09;;;;;;;0.60;0.30;;;18.20;40.20;;;;;;5126437;27;45328;-60
2023/12/05 07:41:37;;;;;;;0.40;0.40;;;18.20;40.00;;;;;;5129922;27;45427;-60
2023/12/05 07:44:04;;;;;;;0.95;0.43;;;18.20;39.80;;;;;;5129281;27;45466;-59
2023/12/05 07:46:30;;;;;;;2.65;0.65;;;18.10;40.00;;;;;;5115119;27;45329;-59
2023/12/05 07:48:57;;;;;;;1.75;0.43;;;18.20;40.10;;;;;;5122790;27;45275;-59
2023/12/05 07:51:24;;;;;;;0.20;0.20;;;18.20;40.00;;;;;;5109282;27;45735;-62
2023/12/05 07:53:51;;;;;;;0.73;0.40;;;18.30;40.00;;;;;;5108991;27;45302;-61
2023/12/05 07:56:19;;;;;;;1.10;0.28;;;18.30;39.90;;;;;;5108665;27;45440;-60
2023/12/05 07:58:46;;;;;;;0.40;0.40;;;18.30;40.50;;;;;;5109150;27;45294;-60
2023/12/05 08:01:13;;;;;;;0.40;0.40;;;18.40;40.00;;;;;;5125285;27;45254;-60
2023/12/05 08:03:39;;;;;;;0.60;0.28;;;18.40;39.90;;;;;;5129123;27;47336;-59
2023/12/05 08:06:08;;;;;;;0.60;0.50;;;18.40;39.80;;;;;;5129006;27;45380;-60
2023/12/05 08:08:34;;;;;;;0.98;0.50;;;18.40;39.80;;;;;;5129684;27;45270;-61
2023/12/05 08:11:02;;;;;;;2.88;0.80;;;18.50;39.90;;;;;;5129335;27;45531;-60
2023/12/05 08:13:30;;;;;;;0.75;0.40;;;18.50;39.40;;;;;;5129388;27;46408;-59
2023/12/05 08:15:57;;;;;;;1.95;0.43;;;18.40;39.00;;;;;;5128754;27;45355;-60
2023/12/05 08:18:23;;;;;;;2.55;0.52;;;18.40;39.30;;;;;;5129554;27;45137;-60
2023/12/05 08:20:50;;;;;;;3.38;0.90;;;18.40;39.50;;;;;;5129554;27;45334;-60
2023/12/05 08:23:18;;;;;;;0.75;0.50;;;18.40;39.60;;;;;;5129043;27;45505;-59
2023/12/05 08:25:45;;;;;;;4.65;0.65;;;18.40;39.70;;;;;;5128608;27;45475;-60
2023/12/05 08:28:12;;;;;;;2.15;0.45;;;18.40;39.60;;;;;;5129163;27;45565;-60
2023/12/05 08:30:41;;;;;;;1.35;0.70;;;18.40;39.60;;;;;;5129428;27;45330;-60
2023/12/05 08:33:08;;;;;;;3.72;0.70;;;18.50;39.70;;;;;;5128815;27;45412;-60
2023/12/05 08:35:36;;;;;;;2.22;0.80;;;18.50;39.70;;;;;;5122011;27;45597;-59
2023/12/05 08:38:02;;;;;;;2.80;0.77;;;18.50;39.70;;;;;;5108483;27;45296;-60
2023/12/05 08:40:29;;;;;;;0.65;0.65;;;18.50;39.70;;;;;;5117763;27;45322;-60
2023/12/05 08:42:56;;;;;;;1.55;0.70;;;18.50;39.70;;;;;;5128347;27;45254;-60
2023/12/05 08:45:24;;;;;;;3.28;0.60;;;18.50;39.80;;;;;;5128198;27;45584;-60
2023/12/05 08:47:54;;;;;;;2.85;0.80;;;18.50;39.70;;;;;;5127458;27;45349;-59
2023/12/05 08:50:21;;;;;;;1.85;0.68;;;18.50;39.80;;;;;;5127950;27;45694;-60
2023/12/05 08:52:48;;;;;;;6.85;1.10;;;18.60;39.80;;;;;;5128143;27;47855;-60
2023/12/05 08:55:15;;;;;;;2.63;0.80;;;18.60;39.80;;;;;;5127619;27;46561;-60
2023/12/05 08:57:41;;;;;;;4.28;0.80;;;18.60;39.80;;;;;;5127861;27;45322;-59
2023/12/05 09:00:09;;;;;;;2.90;0.90;;;18.60;39.90;;;;;;5128529;27;45352;-60
2023/12/05 09:02:36;;;;;;;3.17;0.60;;;18.60;39.90;;;;;;5125728;27;46536;-60
2023/12/05 09:05:04;;;;;;;4.03;0.80;;;18.60;40.00;;;;;;5119140;27;45386;-60
2023/12/05 09:07:31;;;;;;;2.15;0.98;;;18.60;39.90;;;;;;5127149;27;45442;-61
2023/12/05 09:09:58;;;;;;;2.95;0.65;;;18.60;39.90;;;;;;5127743;27;45489;-59
2023/12/05 09:12:25;;;;;;;4.15;0.90;;;18.60;40.00;;;;;;5127723;27;46406;-60
2023/12/05 09:14:50;;;;;;;3.13;1.25;;;18.60;40.00;;;;;;5127863;27;45342;-61
2023/12/05 09:17:18;;;;;;;5.50;1.15;;;18.60;39.90;;;;;;5128200;27;45452;-60
2023/12/05 09:19:45;;;;;;;1.33;0.65;;;18.60;40.00;;;;;;5128168;27;45516;-60
2023/12/05 09:22:13;;;;;;;3.22;0.85;;;18.70;39.90;;;;;;5128001;27;48268;-60
2023/12/05 09:24:40;;;;;;;1.05;0.68;;;18.70;39.90;;;;;;5123829;27;45285;-60
2023/12/05 09:27:06;;;;;;;5.78;0.77;;;18.60;39.90;;;;;;5128293;27;45296;-59
2023/12/05 09:29:33;;;;;;;1.92;0.80;;;18.60;40.00;;;;;;5124617;27;45432;-60
2023/12/05 09:32:00;;;;;;;1.20;0.90;;;18.60;40.00;;;;;;5112276;27;46614;-61
2023/12/05 09:34:27;;;;;;;1.33;0.50;;;18.70;40.00;;;;;;5127039;27;45542;-60
2023/12/05 09:36:54;;;;;;;1.58;0.73;;;18.60;39.90;;;;;;5127023;27;45352;-59
2023/12/05 09:39:22;;;;;;;1.25;0.65;;;18.60;40.00;;;;;;5122928;27;45374;-60
2023/12/05 09:41:53;;;;;;;2.70;0.90;;;18.70;40.10;;;;;;5127324;27;45524;-60
2023/12/05 09:44:21;;;;;;;1.88;0.63;;;18.70;40.00;;;;;;5127886;27;45313;-59
2023/12/05 09:46:49;;;;;;;1.52;0.70;;;18.70;40.10;;;;;;5124992;27;45313;-59
2023/12/05 09:49:17;;;;;;;1.80;0.60;;;18.70;40.10;;;;;;5127664;27;45617;-60
2023/12/05 09:51:43;;;;;;;1.38;0.93;;;18.70;40.10;;;;;;5127727;27;45506;-59
2023/12/05 09:54:10;;;;;;;1.90;0.50;;;18.70;40.10;;;;;;5127366;27;45356;-60
2023/12/05 09:56:39;;;;;;;2.53;0.60;;;18.70;40.10;;;;;;5127286;27;45247;-60
2023/12/05 09:59:05;;;;;;;1.30;0.60;;;18.70;40.10;;;;;;5127966;27;45433;-59
2023/12/05 10:01:32;;;;;;;2.25;0.80;;;18.70;40.10;;;;;;5127089;27;46388;-61
2023/12/05 10:03:59;;;;;;;2.17;0.55;;;18.70;40.20;;;;;;5126140;27;45334;-60
2023/12/05 10:06:26;;;;;;;1.08;0.57;;;18.70;40.20;;;;;;5126966;27;45353;-60
2023/12/05 10:08:53;;;;;;;3.35;0.90;;;18.70;40.20;;;;;;5124952;27;45466;-60
2023/12/05 10:11:20;;;;;;;3.47;0.80;;;18.70;40.20;;;;;;5126549;27;45359;-59
2023/12/05 10:13:49;;;;;;;1.00;0.40;;;18.80;40.20;;;;;;5126918;27;45331;-60
2023/12/05 10:16:15;;;;;;;1.75;0.65;;;18.70;40.20;;;;;;5127435;27;45332;-59
2023/12/05 10:18:42;;;;;;;0.65;0.60;;;18.70;40.30;;;;;;5126971;27;45491;-60
2023/12/05 10:21:09;;;;;;;4.28;0.73;;;18.80;40.30;;;;;;5126833;27;46402;-60
2023/12/05 10:23:36;;;;;;;2.90;0.50;;;18.80;40.20;;;;;;5126842;27;45433;-60
2023/12/05 10:26:03;;;;;;;3.40;0.57;;;18.80;40.30;;;;;;5126903;27;45393;-61
2023/12/05 10:28:30;;;;;;;1.15;0.40;;;18.80;40.20;;;;;;5127175;27;45231;-59
2023/12/05 10:30:58;;;;;;;1.83;0.98;;;18.80;40.20;;;;;;5126495;27;47415;-60
2023/12/05 10:33:25;;;;;;;6.05;0.80;;;18.80;40.20;;;;;;5126733;27;45468;-60
2023/12/05 10:35:51;;;;;;;0.95;0.50;;;18.90;40.20;;;;;;5127069;27;45403;-60
2023/12/05 10:38:19;;;;;;;2.25;0.90;;;19.00;40.00;;;;;;5118793;27;45477;-59
2023/12/05 10:40:53;;;;;;;3.20;0.90;;;19.10;39.80;;;;;;5115524;27;46609;-60
2023/12/05 10:43:20;;;;;;;1.10;0.93;;;19.10;39.80;;;;;;5115724;27;45518;-59
2023/12/05 10:45:46;;;;;;;1.67;1.50;;;19.20;39.80;;;;;;5114535;27;45350;-60
2023/12/05 10:48:15;;;;;;;1.70;0.52;;;19.20;39.70;;;;;;5116900;27;45265;-60
2023/12/05 10:50:43;;;;;;;1.55;0.77;;;19.20;39.70;;;;;;5114878;27;45290;-60
2023/12/05 10:53:10;;;;;;;1.65;0.60;;;19.30;39.60;;;;;;5115037;27;45459;-59
2023/12/05 10:55:37;;;;;;;4.32;1.00;;;19.40;39.60;;;;;;5115109;27;45409;-60
2023/12/05 10:58:04;;;;;;;0.98;0.57;;;19.40;39.40;;;;;;5115052;27;45265;-60
2023/12/05 11:00:31;;;;;;;2.38;0.60;;;19.50;39.30;;;;;;5115868;27;47320;-60
2023/12/05 11:02:58;;;;;;;2.65;0.47;;;19.60;39.30;;;;;;5118852;27;45394;-60
2023/12/05 11:05:26;;;;;;;6.30;0.60;;;19.60;39.20;;;;;;5115925;27;45307;-59
2023/12/05 11:07:53;;;;;;;2.10;0.60;;;19.70;39.20;;;;;;5116595;27;45135;-60
2023/12/05 11:10:20;;;;;;;3.75;0.70;;;19.70;39.10;;;;;;5114540;27;46611;-59
2023/12/05 11:12:49;;;;;;;2.22;0.50;;;19.80;39.10;;;;;;5116171;27;45328;-60
2023/12/05 11:15:17;;;;;;;1.58;0.82;;;19.80;39.00;;;;;;5119944;27;45417;-59
2023/12/05 11:17:48;;;;;;;3.58;0.57;;;19.90;38.90;;;;;;5120812;27;45217;-59
2023/12/05 11:20:22;;;;;;;1.88;0.73;;;19.90;38.90;;;;;;5119884;27;46308;-60
2023/12/05 11:23:00;;;;;;;2.65;0.80;;;20.00;38.80;;;;;;5119113;27;45534;-60
2023/12/05 11:25:36;;;;;;;2.20;0.63;;;20.10;38.80;;;;;;5118762;27;45271;-59
2023/12/05 11:28:09;;;;;;;3.15;0.77;;;20.10;38.60;;;;;;5118432;27;45492;-60
2023/12/05 11:30:57;;;;;;;1.42;0.40;;;20.20;38.60;;;;;;5118482;27;45456;-59
2023/12/05 11:33:34;;;;;;;2.72;0.80;;;20.10;38.50;;;;;;5117471;27;45499;-60
2023/12/05 11:36:05;;;;;;;1.48;0.70;;;20.20;38.70;;;;;;5123114;27;45330;-59
2023/12/05 11:38:34;;;;;;;6.35;0.80;;;20.20;38.60;;;;;;5119715;27;45586;-59
2023/12/05 11:41:13;;;;;;;1.98;0.60;;;20.20;38.60;;;;;;5117970;27;46237;-60
2023/12/05 11:43:40;;;;;;;4.00;0.63;;;20.20;38.60;;;;;;5117892;27;45479;-59
2023/12/05 11:46:07;;;;;;;1.52;0.70;;;20.20;38.50;;;;;;5119068;27;45344;-59
2023/12/05 11:48:34;;;;;;;1.70;0.65;;;20.10;39.50;;;;;;5118995;27;45334;-60
2023/12/05 11:51:01;;;;;;;3.10;0.55;;;20.00;39.10;;;;;;5119942;27;45448;-64
2023/12/05 11:53:28;;;;;;;2.85;0.50;;;19.90;39.40;;;;;;5118478;27;45559;-60
2023/12/05 11:55:58;;;;;;;1.33;0.47;;;19.80;39.60;;;;;;5117918;27;45425;-59
2023/12/05 11:58:28;;;;;;;0.82;0.80;;;19.70;39.70;;;;;;5119885;27;45371;-60
2023/12/05 12:01:06;;;;;;;3.20;1.00;;;19.60;39.90;;;;;;5119263;27;46379;-60
2023/12/05 12:03:48;;;;;;;0.82;0.63;;;19.60;39.90;;;;;;5116926;27;45416;-60
2023/12/05 12:06:16;;;;;;;5.82;0.80;;;19.50;40.00;;;;;;5109018;27;45318;-60
2023/12/05 12:08:43;;;;;;;0.52;0.52;;;19.50;40.00;;;;;;5109230;27;45379;-60
2023/12/05 12:11:11;;;;;;;3.55;0.60;;;19.50;40.10;;;;;;5108587;27;45438;-60
2023/12/05 12:13:38;;;;;;;0.95;0.63;;;19.50;40.10;;;;;;5108815;27;45339;-60
2023/12/05 12:16:06;;;;;;;1.80;0.60;;;19.40;40.10;;;;;;5108963;27;45410;-60
2023/12/05 12:18:32;;;;;;;0.90;0.60;;;19.40;40.10;;;;;;5109046;27;45329;-60
2023/12/05 12:20:59;;;;;;;1.30;0.82;;;19.40;40.20;;;;;;5108515;27;46306;-60
2023/12/05 12:23:26;;;;;;;0.77;0.70;;;19.30;40.10;;;;;;5108533;27;45330;-60
2023/12/05 12:25:54;;;;;;;1.77;0.57;;;19.30;40.10;;;;;;5107785;27;45437;-60
2023/12/05 12:28:28;;;;;;;1.75;0.68;;;19.30;40.20;;;;;;5108840;27;45302;-60
2023/12/05 12:30:55;;;;;;;0.75;0.60;;;19.30;40.20;;;;;;5108388;27;45387;-60
2023/12/05 12:33:22;;;;;;;0.50;0.40;;;19.30;40.30;;;;;;5108751;27;45314;-60
2023/12/05 12:35:49;;;;;;;1.33;0.63;;;19.30;40.40;;;;;;5129117;27;45309;-60
2023/12/05 12:38:16;;;;;;;3.25;0.98;;;19.30;40.40;;;;;;5129059;27;45381;-60
2023/12/05 12:40:43;;;;;;;0.75;0.50;;;19.30;40.30;;;;;;5128795;27;45440;-60
2023/12/05 12:43:09;;;;;;;1.65;0.52;;;19.30;40.20;;;;;;5128784;27;45308;-60
2023/12/05 12:45:38;;;;;;;1.90;0.70;;;19.40;40.20;;;;;;5128909;27;45470;-60
2023/12/05 12:48:05;;;;;;;0.73;0.40;;;19.40;40.10;;;;;;5109555;27;45450;-60
2023/12/05 12:50:32;;;;;;;1.02;0.60;;;19.40;40.00;;;;;;5108054;27;46639;-60